sensor_id;sensor_type;location;lat;lon;timestamp;P1;durP1;ratioP1;P2;durP2;ratioP2
71387;SDS011;59201;59.902;10.520;2022-09-13T00:01:47;5.75;;;1.63;;
71387;SDS011;59201;59.902;10.520;2022-09-13T00:04:13;6.78;;;1.92;;
71387;SDS011;59201;59.902;10.520;2022-09-13T00:06:39;7.60;;;2.35;;
71387;SDS011;59201;59.902;10.520;2022-09-13T00:09:05;6.90;;;2.40;;
71387;SDS011;59201;59.902;10.520;2022-09-13T00:11:31;8.63;;;2.17;;
71387;SDS011;59201;59.902;10.520;2022-09-13T00:13:57;7.13;;;2.78;;
71387;SDS011;59201;59.902;10.520;2022-09-13T00:16:25;10.88;;;1.67;;
71387;SDS011;59201;59.902;10.520;2022-09-13T00:18:52;8.93;;;1.90;;
71387;SDS011;59201;59.902;10.520;2022-09-13T00:21:19;6.32;;;1.63;;
71387;SDS011;59201;59.902;10.520;2022-09-13T00:23:47;7.90;;;1.73;;
71387;SDS011;59201;59.902;10.520;2022-09-13T00:26:18;6.05;;;1.60;;
71387;SDS011;59201;59.902;10.520;2022-09-13T00:28:44;6.13;;;1.77;;
71387;SDS011;59201;59.902;10.520;2022-09-13T00:31:13;7.18;;;1.58;;
71387;SDS011;59201;59.902;10.520;2022-09-13T00:33:39;7.28;;;2.10;;
71387;SDS011;59201;59.902;10.520;2022-09-13T00:36:06;5.50;;;1.70;;
71387;SDS011;59201;59.902;10.520;2022-09-13T00:38:39;7.13;;;1.80;;
71387;SDS011;59201;59.902;10.520;2022-09-13T00:41:06;8.57;;;1.80;;
71387;SDS011;59201;59.902;10.520;2022-09-13T00:46:07;9.60;;;2.08;;
71387;SDS011;59201;59.902;10.520;2022-09-13T00:48:33;5.87;;;1.50;;
71387;SDS011;59201;59.902;10.520;2022-09-13T00:51:01;5.75;;;1.80;;
71387;SDS011;59201;59.902;10.520;2022-09-13T00:53:27;6.55;;;1.70;;
71387;SDS011;59201;59.902;10.520;2022-09-13T00:56:03;6.47;;;1.40;;
71387;SDS011;59201;59.902;10.520;2022-09-13T00:58:32;8.02;;;1.75;;
71387;SDS011;59201;59.902;10.520;2022-09-13T01:00:59;7.83;;;1.50;;
71387;SDS011;59201;59.902;10.520;2022-09-13T01:03:27;5.57;;;2.00;;
71387;SDS011;59201;59.902;10.520;2022-09-13T01:05:59;4.88;;;1.42;;
71387;SDS011;59201;59.902;10.520;2022-09-13T01:08:26;5.18;;;1.20;;
71387;SDS011;59201;59.902;10.520;2022-09-13T01:10:55;5.15;;;1.40;;
71387;SDS011;59201;59.902;10.520;2022-09-13T01:13:24;6.80;;;1.40;;
71387;SDS011;59201;59.902;10.520;2022-09-13T01:15:51;5.05;;;1.40;;
71387;SDS011;59201;59.902;10.520;2022-09-13T01:18:17;4.90;;;1.58;;
71387;SDS011;59201;59.902;10.520;2022-09-13T01:28:22;5.82;;;1.60;;
71387;SDS011;59201;59.902;10.520;2022-09-13T01:31:09;6.05;;;1.50;;
71387;SDS011;59201;59.902;10.520;2022-09-13T01:33:39;4.93;;;1.30;;
71387;SDS011;59201;59.902;10.520;2022-09-13T01:38:38;4.90;;;1.50;;
71387;SDS011;59201;59.902;10.520;2022-09-13T01:43:40;4.90;;;1.30;;
71387;SDS011;59201;59.902;10.520;2022-09-13T01:46:08;5.18;;;1.38;;
71387;SDS011;59201;59.902;10.520;2022-09-13T01:51:29;4.60;;;1.30;;
71387;SDS011;59201;59.902;10.520;2022-09-13T02:00:03;5.25;;;1.10;;
71387;SDS011;59201;59.902;10.520;2022-09-13T02:04:36;5.83;;;1.10;;
71387;SDS011;59201;59.902;10.520;2022-09-13T02:09:30;5.43;;;1.27;;
71387;SDS011;59201;59.902;10.520;2022-09-13T02:12:00;4.72;;;1.60;;
71387;SDS011;59201;59.902;10.520;2022-09-13T02:14:28;5.28;;;1.20;;
71387;SDS011;59201;59.902;10.520;2022-09-13T02:16:57;6.23;;;1.10;;
71387;SDS011;59201;59.902;10.520;2022-09-13T02:19:32;4.28;;;1.10;;
71387;SDS011;59201;59.902;10.520;2022-09-13T02:22:00;5.18;;;1.30;;
71387;SDS011;59201;59.902;10.520;2022-09-13T02:24:28;5.32;;;1.33;;
71387;SDS011;59201;59.902;10.520;2022-09-13T02:26:56;6.40;;;1.60;;
71387;SDS011;59201;59.902;10.520;2022-09-13T02:29:23;4.63;;;1.10;;
71387;SDS011;59201;59.902;10.520;2022-09-13T02:34:22;4.40;;;1.27;;
71387;SDS011;59201;59.902;10.520;2022-09-13T02:36:51;4.93;;;1.10;;
71387;SDS011;59201;59.902;10.520;2022-09-13T02:39:18;6.20;;;1.20;;
71387;SDS011;59201;59.902;10.520;2022-09-13T02:41:57;4.53;;;1.30;;
71387;SDS011;59201;59.902;10.520;2022-09-13T02:49:33;4.50;;;1.17;;
71387;SDS011;59201;59.902;10.520;2022-09-13T02:52:15;4.70;;;1.20;;
71387;SDS011;59201;59.902;10.520;2022-09-13T02:54:49;5.23;;;1.13;;
71387;SDS011;59201;59.902;10.520;2022-09-13T02:57:18;4.15;;;1.15;;
71387;SDS011;59201;59.902;10.520;2022-09-13T02:59:46;4.78;;;1.30;;
71387;SDS011;59201;59.902;10.520;2022-09-13T03:02:14;5.43;;;1.25;;
71387;SDS011;59201;59.902;10.520;2022-09-13T03:04:40;5.22;;;1.10;;
71387;SDS011;59201;59.902;10.520;2022-09-13T03:07:10;4.67;;;1.20;;
71387;SDS011;59201;59.902;10.520;2022-09-13T03:09:36;5.88;;;1.25;;
71387;SDS011;59201;59.902;10.520;2022-09-13T03:15:09;4.70;;;1.20;;
71387;SDS011;59201;59.902;10.520;2022-09-13T03:25:11;5.88;;;1.30;;
71387;SDS011;59201;59.902;10.520;2022-09-13T03:27:48;4.28;;;1.20;;
71387;SDS011;59201;59.902;10.520;2022-09-13T03:30:16;5.53;;;1.40;;
71387;SDS011;59201;59.902;10.520;2022-09-13T03:43:12;6.53;;;1.42;;
71387;SDS011;59201;59.902;10.520;2022-09-13T03:45:41;7.67;;;1.70;;
71387;SDS011;59201;59.902;10.520;2022-09-13T03:48:07;6.00;;;1.50;;
71387;SDS011;59201;59.902;10.520;2022-09-13T03:50:35;7.30;;;1.60;;
71387;SDS011;59201;59.902;10.520;2022-09-13T03:53:06;5.18;;;1.50;;
71387;SDS011;59201;59.902;10.520;2022-09-13T03:55:33;4.97;;;1.30;;
71387;SDS011;59201;59.902;10.520;2022-09-13T03:58:03;5.43;;;1.30;;
71387;SDS011;59201;59.902;10.520;2022-09-13T04:00:29;7.75;;;1.50;;
71387;SDS011;59201;59.902;10.520;2022-09-13T04:02:55;5.22;;;1.30;;
71387;SDS011;59201;59.902;10.520;2022-09-13T04:05:21;4.20;;;1.10;;
71387;SDS011;59201;59.902;10.520;2022-09-13T04:07:47;5.80;;;1.30;;
71387;SDS011;59201;59.902;10.520;2022-09-13T04:10:14;6.33;;;1.17;;
71387;SDS011;59201;59.902;10.520;2022-09-13T04:12:40;6.93;;;1.48;;
71387;SDS011;59201;59.902;10.520;2022-09-13T04:15:06;5.13;;;1.23;;
71387;SDS011;59201;59.902;10.520;2022-09-13T04:17:32;7.32;;;1.30;;
71387;SDS011;59201;59.902;10.520;2022-09-13T04:19:58;5.20;;;1.30;;
71387;SDS011;59201;59.902;10.520;2022-09-13T04:22:24;4.50;;;1.13;;
71387;SDS011;59201;59.902;10.520;2022-09-13T04:24:50;5.47;;;1.15;;
71387;SDS011;59201;59.902;10.520;2022-09-13T04:27:17;5.20;;;1.05;;
71387;SDS011;59201;59.902;10.520;2022-09-13T04:29:43;4.38;;;1.13;;
71387;SDS011;59201;59.902;10.520;2022-09-13T04:32:09;5.80;;;1.40;;
71387;SDS011;59201;59.902;10.520;2022-09-13T04:34:35;5.80;;;1.30;;
71387;SDS011;59201;59.902;10.520;2022-09-13T04:37:01;8.27;;;1.10;;
71387;SDS011;59201;59.902;10.520;2022-09-13T04:39:27;4.90;;;1.17;;
71387;SDS011;59201;59.902;10.520;2022-09-13T04:41:53;3.80;;;1.08;;
71387;SDS011;59201;59.902;10.520;2022-09-13T04:44:20;4.20;;;1.10;;
71387;SDS011;59201;59.902;10.520;2022-09-13T04:46:48;7.03;;;1.10;;
71387;SDS011;59201;59.902;10.520;2022-09-13T04:49:15;5.13;;;0.90;;
71387;SDS011;59201;59.902;10.520;2022-09-13T04:51:41;6.38;;;1.05;;
71387;SDS011;59201;59.902;10.520;2022-09-13T04:54:08;5.43;;;1.00;;
71387;SDS011;59201;59.902;10.520;2022-09-13T04:56:35;4.90;;;1.00;;
71387;SDS011;59201;59.902;10.520;2022-09-13T04:59:01;5.10;;;1.10;;
71387;SDS011;59201;59.902;10.520;2022-09-13T05:01:27;4.78;;;1.05;;
71387;SDS011;59201;59.902;10.520;2022-09-13T05:03:53;4.95;;;1.00;;
71387;SDS011;59201;59.902;10.520;2022-09-13T05:06:19;5.18;;;1.30;;
71387;SDS011;59201;59.902;10.520;2022-09-13T05:08:50;4.32;;;0.90;;
71387;SDS011;59201;59.902;10.520;2022-09-13T05:11:18;5.23;;;1.07;;
71387;SDS011;59201;59.902;10.520;2022-09-13T05:13:47;6.55;;;1.00;;
71387;SDS011;59201;59.902;10.520;2022-09-13T05:16:16;2.80;;;0.80;;
71387;SDS011;59201;59.902;10.520;2022-09-13T05:18:42;3.90;;;0.95;;
71387;SDS011;59201;59.902;10.520;2022-09-13T05:21:08;3.42;;;0.90;;
71387;SDS011;59201;59.902;10.520;2022-09-13T05:23:34;4.30;;;0.80;;
71387;SDS011;59201;59.902;10.520;2022-09-13T05:26:02;3.70;;;0.90;;
71387;SDS011;59201;59.902;10.520;2022-09-13T05:28:29;4.97;;;0.90;;
71387;SDS011;59201;59.902;10.520;2022-09-13T05:33:28;3.92;;;1.10;;
71387;SDS011;59201;59.902;10.520;2022-09-13T05:35:55;4.47;;;1.20;;
71387;SDS011;59201;59.902;10.520;2022-09-13T05:38:21;3.75;;;1.00;;
71387;SDS011;59201;59.902;10.520;2022-09-13T05:40:52;6.60;;;1.10;;
71387;SDS011;59201;59.902;10.520;2022-09-13T05:43:20;4.80;;;0.90;;
71387;SDS011;59201;59.902;10.520;2022-09-13T05:45:46;4.63;;;0.90;;
71387;SDS011;59201;59.902;10.520;2022-09-13T05:48:12;3.30;;;0.80;;
71387;SDS011;59201;59.902;10.520;2022-09-13T05:50:38;4.50;;;0.98;;
71387;SDS011;59201;59.902;10.520;2022-09-13T05:53:04;4.72;;;1.00;;
71387;SDS011;59201;59.902;10.520;2022-09-13T05:55:31;3.83;;;1.05;;
71387;SDS011;59201;59.902;10.520;2022-09-13T05:57:58;5.43;;;1.00;;
71387;SDS011;59201;59.902;10.520;2022-09-13T06:00:24;3.30;;;0.80;;
71387;SDS011;59201;59.902;10.520;2022-09-13T06:02:50;4.32;;;0.98;;
71387;SDS011;59201;59.902;10.520;2022-09-13T06:05:16;3.95;;;1.20;;
71387;SDS011;59201;59.902;10.520;2022-09-13T06:07:42;3.65;;;0.90;;
71387;SDS011;59201;59.902;10.520;2022-09-13T06:10:09;6.47;;;1.10;;
71387;SDS011;59201;59.902;10.520;2022-09-13T06:12:35;3.50;;;0.80;;
71387;SDS011;59201;59.902;10.520;2022-09-13T06:15:02;3.05;;;0.85;;
71387;SDS011;59201;59.902;10.520;2022-09-13T06:17:28;2.90;;;0.80;;
71387;SDS011;59201;59.902;10.520;2022-09-13T06:19:54;3.95;;;0.98;;
71387;SDS011;59201;59.902;10.520;2022-09-13T06:22:21;3.10;;;0.80;;
71387;SDS011;59201;59.902;10.520;2022-09-13T06:24:47;3.03;;;0.90;;
71387;SDS011;59201;59.902;10.520;2022-09-13T06:27:13;2.83;;;0.80;;
71387;SDS011;59201;59.902;10.520;2022-09-13T06:29:39;3.65;;;0.73;;
71387;SDS011;59201;59.902;10.520;2022-09-13T06:32:05;2.53;;;0.70;;
71387;SDS011;59201;59.902;10.520;2022-09-13T06:34:31;3.80;;;0.90;;
71387;SDS011;59201;59.902;10.520;2022-09-13T06:36:57;2.77;;;0.80;;
71387;SDS011;59201;59.902;10.520;2022-09-13T06:39:23;3.28;;;1.00;;
71387;SDS011;59201;59.902;10.520;2022-09-13T06:41:50;3.55;;;0.90;;
71387;SDS011;59201;59.902;10.520;2022-09-13T06:44:16;2.63;;;0.80;;
71387;SDS011;59201;59.902;10.520;2022-09-13T06:46:42;4.10;;;1.10;;
71387;SDS011;59201;59.902;10.520;2022-09-13T06:49:08;6.13;;;1.10;;
71387;SDS011;59201;59.902;10.520;2022-09-13T06:51:35;3.92;;;0.90;;
71387;SDS011;59201;59.902;10.520;2022-09-13T06:54:01;3.75;;;1.08;;
71387;SDS011;59201;59.902;10.520;2022-09-13T06:56:31;4.40;;;0.90;;
71387;SDS011;59201;59.902;10.520;2022-09-13T06:58:58;3.85;;;0.93;;
71387;SDS011;59201;59.902;10.520;2022-09-13T07:01:28;5.57;;;1.03;;
71387;SDS011;59201;59.902;10.520;2022-09-13T07:03:59;5.90;;;1.85;;
71387;SDS011;59201;59.902;10.520;2022-09-13T07:06:26;4.93;;;1.30;;
71387;SDS011;59201;59.902;10.520;2022-09-13T07:08:53;3.58;;;1.00;;
71387;SDS011;59201;59.902;10.520;2022-09-13T07:11:20;3.05;;;0.90;;
71387;SDS011;59201;59.902;10.520;2022-09-13T07:13:50;2.47;;;0.83;;
71387;SDS011;59201;59.902;10.520;2022-09-13T07:16:17;2.90;;;0.80;;
71387;SDS011;59201;59.902;10.520;2022-09-13T07:18:43;3.10;;;0.80;;
71387;SDS011;59201;59.902;10.520;2022-09-13T07:21:10;1.35;;;0.60;;
71387;SDS011;59201;59.902;10.520;2022-09-13T07:23:37;2.35;;;0.70;;
71387;SDS011;59201;59.902;10.520;2022-09-13T07:26:04;4.33;;;0.90;;
71387;SDS011;59201;59.902;10.520;2022-09-13T07:28:32;2.75;;;0.80;;
71387;SDS011;59201;59.902;10.520;2022-09-13T07:31:08;2.63;;;0.80;;
71387;SDS011;59201;59.902;10.520;2022-09-13T07:33:35;1.27;;;0.60;;
71387;SDS011;59201;59.902;10.520;2022-09-13T07:36:01;1.00;;;0.50;;
71387;SDS011;59201;59.902;10.520;2022-09-13T07:38:30;2.27;;;0.60;;
71387;SDS011;59201;59.902;10.520;2022-09-13T07:40:57;1.98;;;0.70;;
71387;SDS011;59201;59.902;10.520;2022-09-13T07:43:26;2.38;;;0.65;;
71387;SDS011;59201;59.902;10.520;2022-09-13T07:46:02;2.13;;;0.60;;
71387;SDS011;59201;59.902;10.520;2022-09-13T07:48:29;3.28;;;0.80;;
71387;SDS011;59201;59.902;10.520;2022-09-13T07:53:24;1.70;;;0.60;;
71387;SDS011;59201;59.902;10.520;2022-09-13T07:55:51;1.70;;;0.68;;
71387;SDS011;59201;59.902;10.520;2022-09-13T07:58:17;2.08;;;0.70;;
71387;SDS011;59201;59.902;10.520;2022-09-13T08:00:43;2.15;;;0.70;;
71387;SDS011;59201;59.902;10.520;2022-09-13T08:03:09;1.50;;;0.60;;
71387;SDS011;59201;59.902;10.520;2022-09-13T08:05:38;2.50;;;0.70;;
71387;SDS011;59201;59.902;10.520;2022-09-13T08:08:05;1.25;;;0.60;;
71387;SDS011;59201;59.902;10.520;2022-09-13T08:10:31;2.03;;;0.60;;
71387;SDS011;59201;59.902;10.520;2022-09-13T08:12:58;1.85;;;0.65;;
71387;SDS011;59201;59.902;10.520;2022-09-13T08:15:24;2.83;;;0.70;;
71387;SDS011;59201;59.902;10.520;2022-09-13T08:17:50;4.47;;;1.02;;
71387;SDS011;59201;59.902;10.520;2022-09-13T08:20:18;1.55;;;0.63;;
71387;SDS011;59201;59.902;10.520;2022-09-13T08:22:44;2.33;;;0.70;;
71387;SDS011;59201;59.902;10.520;2022-09-13T08:25:10;1.45;;;0.60;;
71387;SDS011;59201;59.902;10.520;2022-09-13T08:27:36;2.17;;;0.67;;
71387;SDS011;59201;59.902;10.520;2022-09-13T08:30:03;3.00;;;0.60;;
71387;SDS011;59201;59.902;10.520;2022-09-13T08:32:29;1.63;;;0.60;;
71387;SDS011;59201;59.902;10.520;2022-09-13T08:34:55;1.02;;;0.60;;
71387;SDS011;59201;59.902;10.520;2022-09-13T08:37:21;1.98;;;0.60;;
71387;SDS011;59201;59.902;10.520;2022-09-13T08:39:48;2.60;;;0.60;;
71387;SDS011;59201;59.902;10.520;2022-09-13T08:44:46;0.82;;;0.57;;
71387;SDS011;59201;59.902;10.520;2022-09-13T08:49:45;1.85;;;0.63;;
71387;SDS011;59201;59.902;10.520;2022-09-13T08:52:19;1.90;;;0.60;;
71387;SDS011;59201;59.902;10.520;2022-09-13T08:54:48;1.58;;;0.60;;
71387;SDS011;59201;59.902;10.520;2022-09-13T08:57:20;1.40;;;0.63;;
71387;SDS011;59201;59.902;10.520;2022-09-13T08:59:56;1.48;;;0.52;;
71387;SDS011;59201;59.902;10.520;2022-09-13T09:05:18;1.90;;;0.60;;
71387;SDS011;59201;59.902;10.520;2022-09-13T09:07:46;1.42;;;0.60;;
71387;SDS011;59201;59.902;10.520;2022-09-13T09:12:41;1.85;;;0.60;;
71387;SDS011;59201;59.902;10.520;2022-09-13T09:15:21;2.42;;;0.65;;
71387;SDS011;59201;59.902;10.520;2022-09-13T09:20:35;1.73;;;0.60;;
71387;SDS011;59201;59.902;10.520;2022-09-13T09:23:04;1.83;;;0.60;;
71387;SDS011;59201;59.902;10.520;2022-09-13T09:25:31;1.85;;;0.60;;
71387;SDS011;59201;59.902;10.520;2022-09-13T09:27:59;1.75;;;0.60;;
71387;SDS011;59201;59.902;10.520;2022-09-13T09:30:34;1.73;;;0.70;;
71387;SDS011;59201;59.902;10.520;2022-09-13T09:38:05;2.97;;;0.65;;
71387;SDS011;59201;59.902;10.520;2022-09-13T09:40:32;4.93;;;0.80;;
71387;SDS011;59201;59.902;10.520;2022-09-13T09:43:08;2.17;;;0.60;;
71387;SDS011;59201;59.902;10.520;2022-09-13T09:45:37;1.83;;;0.70;;
71387;SDS011;59201;59.902;10.520;2022-09-13T09:48:06;2.28;;;0.70;;
71387;SDS011;59201;59.902;10.520;2022-09-13T09:50:37;1.73;;;0.60;;
71387;SDS011;59201;59.902;10.520;2022-09-13T09:53:09;3.35;;;0.80;;
71387;SDS011;59201;59.902;10.520;2022-09-13T09:55:49;1.90;;;0.60;;
71387;SDS011;59201;59.902;10.520;2022-09-13T09:58:17;2.35;;;0.75;;
71387;SDS011;59201;59.902;10.520;2022-09-13T10:01:00;2.53;;;0.80;;
71387;SDS011;59201;59.902;10.520;2022-09-13T10:03:27;2.30;;;0.70;;
71387;SDS011;59201;59.902;10.520;2022-09-13T10:08:56;2.43;;;0.70;;
71387;SDS011;59201;59.902;10.520;2022-09-13T10:11:24;1.63;;;0.55;;
71387;SDS011;59201;59.902;10.520;2022-09-13T10:14:02;2.13;;;0.68;;
71387;SDS011;59201;59.902;10.520;2022-09-13T10:16:28;1.73;;;0.60;;
71387;SDS011;59201;59.902;10.520;2022-09-13T10:21:40;2.47;;;0.70;;
71387;SDS011;59201;59.902;10.520;2022-09-13T10:24:15;1.33;;;0.60;;
71387;SDS011;59201;59.902;10.520;2022-09-13T10:26:43;1.95;;;0.70;;
71387;SDS011;59201;59.902;10.520;2022-09-13T10:29:09;2.78;;;0.60;;
71387;SDS011;59201;59.902;10.520;2022-09-13T10:31:40;1.55;;;0.60;;
71387;SDS011;59201;59.902;10.520;2022-09-13T10:34:18;0.90;;;0.50;;
71387;SDS011;59201;59.902;10.520;2022-09-13T10:39:21;1.95;;;0.70;;
71387;SDS011;59201;59.902;10.520;2022-09-13T10:41:55;2.13;;;0.65;;
71387;SDS011;59201;59.902;10.520;2022-09-13T10:44:26;1.45;;;0.60;;
71387;SDS011;59201;59.902;10.520;2022-09-13T10:46:53;1.70;;;0.57;;
71387;SDS011;59201;59.902;10.520;2022-09-13T10:52:31;2.55;;;0.60;;
71387;SDS011;59201;59.902;10.520;2022-09-13T10:57:42;2.60;;;0.80;;
71387;SDS011;59201;59.902;10.520;2022-09-13T11:00:10;2.07;;;0.60;;
71387;SDS011;59201;59.902;10.520;2022-09-13T11:08:12;1.55;;;0.60;;
71387;SDS011;59201;59.902;10.520;2022-09-13T11:13:20;2.00;;;0.70;;
71387;SDS011;59201;59.902;10.520;2022-09-13T11:15:55;2.55;;;0.65;;
71387;SDS011;59201;59.902;10.520;2022-09-13T11:28:50;3.20;;;0.70;;
71387;SDS011;59201;59.902;10.520;2022-09-13T11:41:45;2.28;;;0.70;;
71387;SDS011;59201;59.902;10.520;2022-09-13T11:44:27;4.57;;;0.73;;
71387;SDS011;59201;59.902;10.520;2022-09-13T11:57:30;4.13;;;0.80;;
71387;SDS011;59201;59.902;10.520;2022-09-13T12:00:04;1.73;;;0.60;;
71387;SDS011;59201;59.902;10.520;2022-09-13T12:05:17;2.57;;;0.70;;
71387;SDS011;59201;59.902;10.520;2022-09-13T12:07:50;1.48;;;0.60;;
71387;SDS011;59201;59.902;10.520;2022-09-13T12:12:43;1.50;;;0.60;;
71387;SDS011;59201;59.902;10.520;2022-09-13T12:15:21;2.25;;;0.70;;
71387;SDS011;59201;59.902;10.520;2022-09-13T12:17:52;2.27;;;0.80;;
71387;SDS011;59201;59.902;10.520;2022-09-13T12:23:06;2.00;;;0.70;;
71387;SDS011;59201;59.902;10.520;2022-09-13T12:25:38;1.27;;;0.50;;
71387;SDS011;59201;59.902;10.520;2022-09-13T12:28:11;2.10;;;0.60;;
71387;SDS011;59201;59.902;10.520;2022-09-13T12:30:41;2.53;;;0.63;;
71387;SDS011;59201;59.902;10.520;2022-09-13T12:33:12;1.35;;;0.60;;
71387;SDS011;59201;59.902;10.520;2022-09-13T12:43:53;2.00;;;0.70;;
71387;SDS011;59201;59.902;10.520;2022-09-13T12:51:46;2.03;;;0.70;;
71387;SDS011;59201;59.902;10.520;2022-09-13T12:54:33;2.47;;;0.75;;
71387;SDS011;59201;59.902;10.520;2022-09-13T12:59:39;1.85;;;0.60;;
71387;SDS011;59201;59.902;10.520;2022-09-13T13:02:23;2.63;;;0.60;;
71387;SDS011;59201;59.902;10.520;2022-09-13T13:04:51;1.73;;;0.60;;
71387;SDS011;59201;59.902;10.520;2022-09-13T13:07:19;1.95;;;0.68;;
71387;SDS011;59201;59.902;10.520;2022-09-13T13:09:47;1.90;;;0.70;;
71387;SDS011;59201;59.902;10.520;2022-09-13T13:12:25;2.03;;;0.70;;
71387;SDS011;59201;59.902;10.520;2022-09-13T13:14:52;1.70;;;0.60;;
71387;SDS011;59201;59.902;10.520;2022-09-13T13:22:50;1.20;;;0.60;;
71387;SDS011;59201;59.902;10.520;2022-09-13T13:25:35;3.83;;;0.70;;
71387;SDS011;59201;59.902;10.520;2022-09-13T13:30:50;2.75;;;0.77;;
71387;SDS011;59201;59.902;10.520;2022-09-13T13:33:18;1.98;;;0.70;;
71387;SDS011;59201;59.902;10.520;2022-09-13T13:35:44;2.20;;;0.70;;
71387;SDS011;59201;59.902;10.520;2022-09-13T13:38:29;3.88;;;0.80;;
71387;SDS011;59201;59.902;10.520;2022-09-13T13:41:04;2.97;;;0.70;;
71387;SDS011;59201;59.902;10.520;2022-09-13T13:43:33;2.70;;;0.70;;
71387;SDS011;59201;59.902;10.520;2022-09-13T13:48:38;2.97;;;0.80;;
71387;SDS011;59201;59.902;10.520;2022-09-13T13:51:15;2.25;;;0.60;;
71387;SDS011;59201;59.902;10.520;2022-09-13T13:53:43;2.88;;;0.70;;
71387;SDS011;59201;59.902;10.520;2022-09-13T13:56:20;2.22;;;0.80;;
71387;SDS011;59201;59.902;10.520;2022-09-13T13:58:51;3.10;;;0.70;;
71387;SDS011;59201;59.902;10.520;2022-09-13T14:01:20;2.37;;;0.70;;
71387;SDS011;59201;59.902;10.520;2022-09-13T14:09:18;1.20;;;0.52;;
71387;SDS011;59201;59.902;10.520;2022-09-13T14:11:55;3.70;;;0.70;;
71387;SDS011;59201;59.902;10.520;2022-09-13T14:19:25;1.75;;;0.70;;
71387;SDS011;59201;59.902;10.520;2022-09-13T14:22:37;2.28;;;0.70;;
71387;SDS011;59201;59.902;10.520;2022-09-13T14:24:44;2.28;;;0.70;;
71387;SDS011;59201;59.902;10.520;2022-09-13T14:27:25;5.13;;;0.70;;
71387;SDS011;59201;59.902;10.520;2022-09-13T14:29:57;3.63;;;0.70;;
71387;SDS011;59201;59.902;10.520;2022-09-13T14:32:25;1.15;;;0.60;;
71387;SDS011;59201;59.902;10.520;2022-09-13T14:37:23;1.52;;;0.60;;
71387;SDS011;59201;59.902;10.520;2022-09-13T14:42:20;1.50;;;0.60;;
71387;SDS011;59201;59.902;10.520;2022-09-13T14:44:46;3.08;;;0.60;;
71387;SDS011;59201;59.902;10.520;2022-09-13T14:49:40;2.53;;;0.70;;
71387;SDS011;59201;59.902;10.520;2022-09-13T14:52:09;1.33;;;0.60;;
71387;SDS011;59201;59.902;10.520;2022-09-13T14:54:41;1.33;;;0.60;;
71387;SDS011;59201;59.902;10.520;2022-09-13T14:57:17;2.45;;;0.70;;
71387;SDS011;59201;59.902;10.520;2022-09-13T14:59:46;1.50;;;0.60;;
71387;SDS011;59201;59.902;10.520;2022-09-13T15:02:20;3.00;;;0.90;;
71387;SDS011;59201;59.902;10.520;2022-09-13T15:04:49;4.93;;;1.80;;
71387;SDS011;59201;59.902;10.520;2022-09-13T15:07:37;6.65;;;3.17;;
71387;SDS011;59201;59.902;10.520;2022-09-13T15:12:48;2.72;;;0.60;;
71387;SDS011;59201;59.902;10.520;2022-09-13T15:15:20;3.13;;;0.70;;
71387;SDS011;59201;59.902;10.520;2022-09-13T15:17:53;1.83;;;0.60;;
71387;SDS011;59201;59.902;10.520;2022-09-13T15:20:19;1.63;;;0.60;;
71387;SDS011;59201;59.902;10.520;2022-09-13T15:22:46;3.22;;;0.70;;
71387;SDS011;59201;59.902;10.520;2022-09-13T15:25:16;2.85;;;0.70;;
71387;SDS011;59201;59.902;10.520;2022-09-13T15:27:44;3.75;;;0.70;;
71387;SDS011;59201;59.902;10.520;2022-09-13T15:30:30;2.43;;;0.60;;
71387;SDS011;59201;59.902;10.520;2022-09-13T15:35:42;2.85;;;0.70;;
71387;SDS011;59201;59.902;10.520;2022-09-13T15:38:21;2.10;;;0.70;;
71387;SDS011;59201;59.902;10.520;2022-09-13T15:41:02;2.03;;;0.70;;
71387;SDS011;59201;59.902;10.520;2022-09-13T15:43:28;1.37;;;0.60;;
71387;SDS011;59201;59.902;10.520;2022-09-13T15:45:56;3.25;;;1.20;;
71387;SDS011;59201;59.902;10.520;2022-09-13T15:48:29;4.15;;;0.80;;
71387;SDS011;59201;59.902;10.520;2022-09-13T15:51:09;2.60;;;0.80;;
71387;SDS011;59201;59.902;10.520;2022-09-13T15:53:36;4.20;;;1.00;;
71387;SDS011;59201;59.902;10.520;2022-09-13T15:56:03;4.23;;;1.17;;
71387;SDS011;59201;59.902;10.520;2022-09-13T15:58:29;6.10;;;2.10;;
71387;SDS011;59201;59.902;10.520;2022-09-13T16:00:55;8.27;;;2.97;;
71387;SDS011;59201;59.902;10.520;2022-09-13T16:03:21;5.68;;;1.90;;
71387;SDS011;59201;59.902;10.520;2022-09-13T16:05:47;4.63;;;1.42;;
71387;SDS011;59201;59.902;10.520;2022-09-13T16:08:13;5.53;;;1.20;;
71387;SDS011;59201;59.902;10.520;2022-09-13T16:10:39;4.13;;;0.93;;
71387;SDS011;59201;59.902;10.520;2022-09-13T16:13:05;2.78;;;0.80;;
71387;SDS011;59201;59.902;10.520;2022-09-13T16:15:31;4.38;;;0.95;;
71387;SDS011;59201;59.902;10.520;2022-09-13T16:17:58;3.40;;;0.90;;
71387;SDS011;59201;59.902;10.520;2022-09-13T16:20:24;2.83;;;0.70;;
71387;SDS011;59201;59.902;10.520;2022-09-13T16:22:51;3.03;;;0.88;;
71387;SDS011;59201;59.902;10.520;2022-09-13T16:25:17;5.10;;;0.80;;
71387;SDS011;59201;59.902;10.520;2022-09-13T16:27:44;2.78;;;0.70;;
71387;SDS011;59201;59.902;10.520;2022-09-13T16:30:11;2.20;;;0.70;;
71387;SDS011;59201;59.902;10.520;2022-09-13T16:32:37;2.77;;;0.80;;
71387;SDS011;59201;59.902;10.520;2022-09-13T16:35:03;5.30;;;1.00;;
71387;SDS011;59201;59.902;10.520;2022-09-13T16:37:29;3.30;;;0.90;;
71387;SDS011;59201;59.902;10.520;2022-09-13T16:39:56;4.88;;;0.90;;
71387;SDS011;59201;59.902;10.520;2022-09-13T16:42:22;6.47;;;1.10;;
71387;SDS011;59201;59.902;10.520;2022-09-13T16:44:48;4.00;;;1.03;;
71387;SDS011;59201;59.902;10.520;2022-09-13T16:47:14;4.18;;;1.05;;
71387;SDS011;59201;59.902;10.520;2022-09-13T16:49:40;3.15;;;0.88;;
71387;SDS011;59201;59.902;10.520;2022-09-13T16:52:06;5.47;;;1.00;;
71387;SDS011;59201;59.902;10.520;2022-09-13T16:54:33;3.08;;;0.80;;
71387;SDS011;59201;59.902;10.520;2022-09-13T16:57:00;4.07;;;1.00;;
71387;SDS011;59201;59.902;10.520;2022-09-13T16:59:27;3.40;;;0.98;;
71387;SDS011;59201;59.902;10.520;2022-09-13T17:01:53;3.55;;;0.90;;
71387;SDS011;59201;59.902;10.520;2022-09-13T17:04:19;3.53;;;0.90;;
71387;SDS011;59201;59.902;10.520;2022-09-13T17:06:45;3.97;;;1.00;;
71387;SDS011;59201;59.902;10.520;2022-09-13T17:09:11;5.23;;;1.33;;
71387;SDS011;59201;59.902;10.520;2022-09-13T17:11:38;4.53;;;1.20;;
71387;SDS011;59201;59.902;10.520;2022-09-13T17:14:06;4.95;;;1.60;;
71387;SDS011;59201;59.902;10.520;2022-09-13T17:16:34;5.80;;;1.90;;
71387;SDS011;59201;59.902;10.520;2022-09-13T17:19:02;5.10;;;1.95;;
71387;SDS011;59201;59.902;10.520;2022-09-13T17:21:28;5.00;;;1.70;;
71387;SDS011;59201;59.902;10.520;2022-09-13T17:23:55;4.88;;;1.48;;
71387;SDS011;59201;59.902;10.520;2022-09-13T17:26:21;4.57;;;1.30;;
71387;SDS011;59201;59.902;10.520;2022-09-13T17:28:47;4.60;;;1.20;;
71387;SDS011;59201;59.902;10.520;2022-09-13T17:31:14;4.97;;;1.30;;
71387;SDS011;59201;59.902;10.520;2022-09-13T17:33:40;4.17;;;1.20;;
71387;SDS011;59201;59.902;10.520;2022-09-13T17:36:06;5.65;;;1.90;;
71387;SDS011;59201;59.902;10.520;2022-09-13T17:38:33;4.95;;;1.33;;
71387;SDS011;59201;59.902;10.520;2022-09-13T17:41:00;6.78;;;1.50;;
71387;SDS011;59201;59.902;10.520;2022-09-13T17:43:27;5.20;;;1.40;;
71387;SDS011;59201;59.902;10.520;2022-09-13T17:45:53;4.30;;;1.30;;
71387;SDS011;59201;59.902;10.520;2022-09-13T17:48:19;4.50;;;1.33;;
71387;SDS011;59201;59.902;10.520;2022-09-13T17:50:45;3.35;;;1.00;;
71387;SDS011;59201;59.902;10.520;2022-09-13T17:53:11;3.33;;;0.90;;
71387;SDS011;59201;59.902;10.520;2022-09-13T17:55:45;4.80;;;0.93;;